Main page
METAR-TAF:

METAR-TAF

Airports :

Julius Nyerere International Airport

Dar es Salaam, Tanzania

latitude: 06-52S, longitude: 039-12E, elevation: 55 m

Current weather observation

The report was made 9 hours and 15 minutes ago, at 19:00 UTC
Wind 5 kt from the West/Southwest
Temperature 23°C
Humidity 78%
Pressure 1018 hPa
Visibility 10 km or more
Few clouds at a height of 1400 ft

METAR: HTDA 231900Z 24005KT 9999 FEW014 23/19 Q1018 NOSIG

Time: 07:15 (04:15 UTC)

Forecast

The report was made 11 hours and 15 minutes ago, at 17:00 UTC
Forecast valid from 23 at 18 UTC to 24 at 24 UTC
Wind 5 kt from the South
Visibility 10 km or more
Scattered clouds at a height of 1300 ft
Becoming
from 24 at 07 UTC to 24 at 10 UTC
Wind 15 kt from the South/Southwest

TAF: HTDA 231700Z 2318/2424 19005KT 9999 SCT013 BECMG 2407/2410 20015KT

Weather observations and forecasts of more than 4000 airports (METAR and TAF reports).

The available stations are represented by yellow and red dots on the map.

Hover mouse over dot to see the name of the station.

Then click to see weather observations and forecasts.

To change the map : click on the green buttons with a black cross to zoom in, on the green button with a dash to zoom out, or on the green arrows for adjacent maps.


METAR-TAF: